TimeEST,TemperatureF,Dew PointF,Humidity,Sea Level PressureIn,VisibilityMPH,Wind Direction,Wind SpeedMPH,Gust SpeedMPH,PrecipitationIn,Events,Conditions,WindDirDegrees,DateUTC
12:32 AM,46.4,44.6,93,29.85,2.0,South,4.6,-,0.00,Rain,Light Rain,170,2013-02-24 05:32:00
12:41 AM,46.4,44.6,93,29.81,1.5,SE,5.8,-,0.01,Rain,Light Rain,130,2013-02-24 05:41:00
12:56 AM,46.9,45.0,93,29.85,3.0,Calm,Calm,-,0.01,,Overcast,0,2013-02-24 05:56:00
1:30 AM,46.4,44.6,93,29.82,2.5,WSW,3.5,-,N/A,,Overcast,250,2013-02-24 06:30:00
1:56 AM,46.0,44.1,93,29.82,1.2,NW,8.1,-,N/A,,Overcast,310,2013-02-24 06:56:00
2:09 AM,46.4,44.6,93,29.82,1.0,NW,11.5,-,N/A,,Mist,310,2013-02-24 07:09:00
2:16 AM,46.4,44.6,93,29.81,0.8,NW,9.2,-,N/A,,Mist,320,2013-02-24 07:16:00
2:24 AM,46.4,44.6,93,29.81,1.2,NW,5.8,-,N/A,,Overcast,310,2013-02-24 07:24:00
2:34 AM,46.4,44.6,93,29.81,2.5,WNW,4.6,-,N/A,,Overcast,300,2013-02-24 07:34:00
2:41 AM,46.4,44.6,93,29.81,3.0,NW,5.8,-,N/A,,Overcast,310,2013-02-24 07:41:00
2:56 AM,46.0,44.1,93,29.81,2.5,NNW,8.1,-,N/A,,Overcast,330,2013-02-24 07:56:00
3:08 AM,46.4,44.6,93,29.79,1.2,NNW,6.9,-,N/A,,Overcast,330,2013-02-24 08:08:00
3:56 AM,46.0,44.1,93,29.80,1.8,WNW,4.6,-,N/A,,Overcast,300,2013-02-24 08:56:00
4:11 AM,46.4,44.6,93,29.79,0.8,WNW,3.5,-,N/A,,Overcast,290,2013-02-24 09:11:00
4:56 AM,46.0,44.1,93,29.83,0.8,WNW,6.9,-,N/A,,Mist,290,2013-02-24 09:56:00
5:11 AM,46.4,44.6,93,29.82,1.0,West,8.1,-,N/A,,Mist,280,2013-02-24 10:11:00
5:19 AM,46.4,44.6,93,29.82,1.2,WNW,6.9,-,N/A,,Overcast,290,2013-02-24 10:19:00
5:40 AM,46.4,44.6,93,29.84,2.5,NW,10.4,-,N/A,,Overcast,310,2013-02-24 10:40:00
5:56 AM,46.0,43.0,89,29.85,4.0,WNW,8.1,-,N/A,,Overcast,290,2013-02-24 10:56:00
6:06 AM,46.4,44.6,93,29.84,6.0,WNW,4.6,-,N/A,,Overcast,290,2013-02-24 11:06:00
6:26 AM,46.4,42.8,87,29.85,6.0,WNW,5.8,-,N/A,,Overcast,290,2013-02-24 11:26:00
6:56 AM,46.0,43.0,89,29.87,6.0,NW,5.8,-,N/A,,Overcast,310,2013-02-24 11:56:00
7:56 AM,46.9,44.1,90,29.89,4.0,WNW,5.8,-,N/A,,Overcast,300,2013-02-24 12:56:00
8:56 AM,48.0,45.0,89,29.92,7.0,WNW,6.9,-,N/A,,Overcast,300,2013-02-24 13:56:00
9:56 AM,48.9,45.0,86,29.94,7.0,WNW,11.5,-,N/A,,Overcast,300,2013-02-24 14:56:00
10:37 AM,50.0,44.6,82,29.93,7.0,NW,11.5,-,N/A,,Overcast,310,2013-02-24 15:37:00
10:56 AM,50.0,45.0,83,29.94,6.0,NW,12.7,-,N/A,,Haze,310,2013-02-24 15:56:00
11:43 AM,53.6,46.4,77,29.94,7.0,NW,12.7,-,N/A,,Scattered Clouds,320,2013-02-24 16:43:00
11:56 AM,55.0,46.0,72,29.95,7.0,WNW,11.5,-,N/A,,Partly Cloudy,290,2013-02-24 16:56:00
12:56 PM,59.0,45.0,60,29.92,9.0,NW,9.2,-,N/A,,Clear,310,2013-02-24 17:56:00
1:56 PM,62.1,42.1,48,29.91,10.0,NW,9.2,-,N/A,,Partly Cloudy,310,2013-02-24 18:56:00
2:56 PM,63.0,39.9,43,29.90,10.0,NNW,8.1,-,N/A,,Clear,330,2013-02-24 19:56:00
3:56 PM,63.0,39.9,43,29.91,10.0,West,9.2,-,N/A,,Clear,280,2013-02-24 20:56:00
4:56 PM,62.1,39.0,43,29.91,10.0,WNW,5.8,-,N/A,,Clear,290,2013-02-24 21:56:00
5:56 PM,57.9,39.0,49,29.93,10.0,Calm,Calm,-,N/A,,Clear,0,2013-02-24 22:56:00
6:56 PM,52.0,46.0,80,29.96,10.0,South,5.8,-,N/A,,Clear,170,2013-02-24 23:56:00
7:56 PM,46.9,44.1,90,29.99,7.0,Calm,Calm,-,N/A,,Clear,0,2013-02-25 00:56:00
8:56 PM,45.0,42.1,90,30.00,4.0,Calm,Calm,-,N/A,,Clear,0,2013-02-25 01:56:00
9:56 PM,44.1,41.0,89,30.01,4.0,Calm,Calm,-,N/A,,Clear,0,2013-02-25 02:56:00
10:56 PM,42.1,39.9,92,30.01,3.0,Calm,Calm,-,N/A,,Clear,0,2013-02-25 03:56:00
11:09 PM,41.0,39.2,93,30.00,2.5,Calm,Calm,-,N/A,,Clear,0,2013-02-25 04:09:00
11:17 PM,41.0,37.4,87,30.01,4.0,WSW,3.5,-,N/A,,Clear,250,2013-02-25 04:17:00
11:56 PM,39.9,37.9,93,30.02,4.0,Calm,Calm,-,N/A,,Clear,0,2013-02-25 04:56:00